(°C)
21°
20°
19°
19°
19°
18°
18°
(°C)
19°
18°
18°
17°
17°
17°
17°
WNW
WNW
WNW
WNW
NW
WNW
WNW
(km/h)
14-21
13-21
11-20
10-19
9-18
8-16
7-15
(mm)
0
0
0
0
0
0
0
(%)
0
0
0
0
0
0
0

Sonnenhöhe

/ 31.3°
sun-icon
UV 10
05:44
20:01
Zunehmender Halbmond (71°)
11:41
24:00

METAR für San Diego (KSAN)

Zeit Bedingungen Temperatur/
Taupunkt
Wind Sichtweite Wetter Wolken Druck Änderung Roh
VFR 21.1°C / 15.6°C 290º 7kt >10km - Scattered Clouds 2000ft 1013 - KSAN 052351Z 29007KT 10SM SCT020 21/16 A2994 RMK AO2 SLP137 SCT V BKN T02110156 10222 20206 56009
VFR 21.7°C / 15°C 290º 8kt Gust 14kt >10km - Scattered Clouds 2100ft 1013 - KSAN 052251Z 29008G14KT 10SM SCT021 22/15 A2994 RMK AO2 SLP139 SCT V BKN T02170150
VFR 21.1°C / 15°C 260º 8kt >10km - Scattered Clouds 2200ft 1014 - KSAN 052151Z 26008KT 10SM SCT022 21/15 A2995 RMK AO2 SLP143 T02110150
VFR 21.7°C / 14.4°C 230º 7kt >10km - Scattered Clouds 2300ft 1014 - KSAN 052051Z 23007KT 10SM SCT023 22/14 A2996 RMK AO2 SLP146 T02170144 58004
VFR 21.7°C / 15°C 220º 8kt >10km - Scattered Clouds 2300ft 1014 - KSAN 051951Z 22008KT 10SM SCT023 22/15 A2997 RMK AO2 SLP148 T02170150
VFR 21.1°C / 15°C 200º 8kt >10km - Scattered Clouds 2300ft 1014 - KSAN 051851Z 20008KT 10SM SCT023 21/15 A2997 RMK AO2 SLP149 T02110150
VFR 20.6°C / 13.9°C variable 6kt >10km - Scattered Clouds 2300ft 1015 - KSAN 051751Z VRB06KT 10SM SCT023 21/14 A2997 RMK AO2 SLP150 T02060139 10211 20189 58001
VFR 20.6°C / 13.9°C variable 5kt >10km - Scattered Clouds 2300ft - KSAN 051728Z VRB05KT 10SM SCT023 21/14 A2998 RMK AO2 T02060139
MVFR 20°C / 13.9°C 230º 7kt >10km - Broken Clouds 2300ft 1015 - KSAN 051651Z 23007KT 10SM BKN023 20/14 A2998 RMK AO2 SLP151 T02000139
MVFR 19.4°C / 13.9°C 270º 4kt >10km - Broken Clouds 2200ft 1015 - KSAN 051551Z 27004KT 10SM BKN022 19/14 A2998 RMK AO2 SLP152 T01940139
MVFR 19.4°C / 13.9°C 150º 5kt >10km - Broken Clouds 2100ft 1015 - KSAN 051451Z 15005KT 10SM BKN021 19/14 A2998 RMK AO2 SLP150 T01940139 53008
MVFR 19.4°C / 14.4°C 140º 5kt >10km - Broken Clouds 2100ft 1014 - KSAN 051351Z 14005KT 10SM BKN021 19/14 A2997 RMK AO2 SLP147 T01940144
MVFR 19.4°C / 14.4°C 130º 4kt >10km - Overcast 1800ft 1014 - KSAN 051251Z 13004KT 10SM OVC018 19/14 A2996 RMK AO2 SLP143 T01940144
MVFR 18.9°C / 14.4°C 140º 4kt >10km - Overcast 1900ft 1014 - KSAN 051151Z 14004KT 10SM OVC019 19/14 A2995 RMK AO2 SLP142 T01890144 10189 20183 55002
MVFR 18.9°C / 14.4°C 190º 3kt >10km - Overcast 1900ft 1014 - KSAN 051051Z 19003KT 10SM OVC019 19/14 A2995 RMK AO2 SLP142 T01890144
MVFR 18.9°C / 13.9°C 100º 4kt >10km - Broken Clouds 1900ft 1014 - KSAN 050951Z 10004KT 9SM BKN019 19/14 A2995 RMK AO2 SLP142 T01890139
MVFR 18.9°C / 14.4°C variable 0kt >10km - Broken Clouds 1900ft 1014 - KSAN 050851Z 00000KT 10SM BKN019 19/14 A2996 RMK AO2 SLP144 T01890144 57007
MVFR 18.9°C / 14.4°C 200º 3kt >10km - Broken Clouds 1700ft - KSAN 050812Z 20003KT 10SM BKN017 19/14 A2996 RMK AO2 T01890144
VFR 18.9°C / 14.4°C variable 0kt >10km - Scattered Clouds 1800ft 1014 - KSAN 050751Z 00000KT 10SM SCT018 19/14 A2997 RMK AO2 SLP146 T01890144 402060178
VFR 18.3°C / 14.4°C variable 0kt >10km - Few Clouds 2000ft 1014 - KSAN 050651Z 00000KT 10SM FEW020 18/14 A2997 RMK AO2 SLP149 T01830144
VFR 18.3°C / 13.9°C variable 0kt >10km - Scattered Clouds 2000ft 1015 - KSAN 050551Z 00000KT 10SM SCT020 18/14 A2998 RMK AO2 SLP151 T01830139 10200 20183 51006
VFR 18.3°C / 13.9°C variable 0kt >10km - Few Clouds 500ft
Scattered Clouds 2000ft
1015 - KSAN 050451Z 00000KT 10SM FEW005 SCT020 18/14 A2998 RMK AO2 SLP151 FU FEW005 T01830139
MVFR 18.3°C / 13.9°C 290º 4kt >10km - Few Clouds 500ft
Broken Clouds 2000ft
- KSAN 050413Z 29004KT 10SM FEW005 BKN020 18/14 A2997 RMK AO2 FU FEW005 T01830139
VFR 18.3°C / 13.9°C variable 3kt >10km - Scattered Clouds 1900ft 1014 - KSAN 050351Z VRB03KT 10SM SCT019 18/14 A2997 RMK AO2 SLP148 SCT V BKN T01830139

VFR

21.1°C / 15.6°C

[Mehr]
Wind 290º 7kt
Sichtweite >10km
Wetter -
Wolken Scattered Clouds 2000ft
Druck 1013
Änderung -
Roh KSAN 052351Z 29007KT 10SM SCT020 21/16 A2994 RMK AO2 SLP137 SCT V BKN T02110156 10222 20206 56009

VFR

21.7°C / 15°C

[Mehr]
Wind 290º 8kt Gust 14kt
Sichtweite >10km
Wetter -
Wolken Scattered Clouds 2100ft
Druck 1013
Änderung -
Roh KSAN 052251Z 29008G14KT 10SM SCT021 22/15 A2994 RMK AO2 SLP139 SCT V BKN T02170150

VFR

21.1°C / 15°C

[Mehr]
Wind 260º 8kt
Sichtweite >10km
Wetter -
Wolken Scattered Clouds 2200ft
Druck 1014
Änderung -
Roh KSAN 052151Z 26008KT 10SM SCT022 21/15 A2995 RMK AO2 SLP143 T02110150

VFR

21.7°C / 14.4°C

[Mehr]
Wind 230º 7kt
Sichtweite >10km
Wetter -
Wolken Scattered Clouds 2300ft
Druck 1014
Änderung -
Roh KSAN 052051Z 23007KT 10SM SCT023 22/14 A2996 RMK AO2 SLP146 T02170144 58004

VFR

21.7°C / 15°C

[Mehr]
Wind 220º 8kt
Sichtweite >10km
Wetter -
Wolken Scattered Clouds 2300ft
Druck 1014
Änderung -
Roh KSAN 051951Z 22008KT 10SM SCT023 22/15 A2997 RMK AO2 SLP148 T02170150

VFR

21.1°C / 15°C

[Mehr]
Wind 200º 8kt
Sichtweite >10km
Wetter -
Wolken Scattered Clouds 2300ft
Druck 1014
Änderung -
Roh KSAN 051851Z 20008KT 10SM SCT023 21/15 A2997 RMK AO2 SLP149 T02110150

VFR

20.6°C / 13.9°C

[Mehr]
Wind variable 6kt
Sichtweite >10km
Wetter -
Wolken Scattered Clouds 2300ft
Druck 1015
Änderung -
Roh KSAN 051751Z VRB06KT 10SM SCT023 21/14 A2997 RMK AO2 SLP150 T02060139 10211 20189 58001

VFR

20.6°C / 13.9°C

[Mehr]
Wind variable 5kt
Sichtweite >10km
Wetter -
Wolken Scattered Clouds 2300ft
Druck
Änderung -
Roh KSAN 051728Z VRB05KT 10SM SCT023 21/14 A2998 RMK AO2 T02060139

MVFR

20°C / 13.9°C

[Mehr]
Wind 230º 7kt
Sichtweite >10km
Wetter -
Wolken Broken Clouds 2300ft
Druck 1015
Änderung -
Roh KSAN 051651Z 23007KT 10SM BKN023 20/14 A2998 RMK AO2 SLP151 T02000139

MVFR

19.4°C / 13.9°C

[Mehr]
Wind 270º 4kt
Sichtweite >10km
Wetter -
Wolken Broken Clouds 2200ft
Druck 1015
Änderung -
Roh KSAN 051551Z 27004KT 10SM BKN022 19/14 A2998 RMK AO2 SLP152 T01940139

MVFR

19.4°C / 13.9°C

[Mehr]
Wind 150º 5kt
Sichtweite >10km
Wetter -
Wolken Broken Clouds 2100ft
Druck 1015
Änderung -
Roh KSAN 051451Z 15005KT 10SM BKN021 19/14 A2998 RMK AO2 SLP150 T01940139 53008

MVFR

19.4°C / 14.4°C

[Mehr]
Wind 140º 5kt
Sichtweite >10km
Wetter -
Wolken Broken Clouds 2100ft
Druck 1014
Änderung -
Roh KSAN 051351Z 14005KT 10SM BKN021 19/14 A2997 RMK AO2 SLP147 T01940144

MVFR

19.4°C / 14.4°C

[Mehr]
Wind 130º 4kt
Sichtweite >10km
Wetter -
Wolken Overcast 1800ft
Druck 1014
Änderung -
Roh KSAN 051251Z 13004KT 10SM OVC018 19/14 A2996 RMK AO2 SLP143 T01940144

MVFR

18.9°C / 14.4°C

[Mehr]
Wind 140º 4kt
Sichtweite >10km
Wetter -
Wolken Overcast 1900ft
Druck 1014
Änderung -
Roh KSAN 051151Z 14004KT 10SM OVC019 19/14 A2995 RMK AO2 SLP142 T01890144 10189 20183 55002

MVFR

18.9°C / 14.4°C

[Mehr]
Wind 190º 3kt
Sichtweite >10km
Wetter -
Wolken Overcast 1900ft
Druck 1014
Änderung -
Roh KSAN 051051Z 19003KT 10SM OVC019 19/14 A2995 RMK AO2 SLP142 T01890144

MVFR

18.9°C / 13.9°C

[Mehr]
Wind 100º 4kt
Sichtweite >10km
Wetter -
Wolken Broken Clouds 1900ft
Druck 1014
Änderung -
Roh KSAN 050951Z 10004KT 9SM BKN019 19/14 A2995 RMK AO2 SLP142 T01890139

MVFR

18.9°C / 14.4°C

[Mehr]
Wind variable 0kt
Sichtweite >10km
Wetter -
Wolken Broken Clouds 1900ft
Druck 1014
Änderung -
Roh KSAN 050851Z 00000KT 10SM BKN019 19/14 A2996 RMK AO2 SLP144 T01890144 57007

MVFR

18.9°C / 14.4°C

[Mehr]
Wind 200º 3kt
Sichtweite >10km
Wetter -
Wolken Broken Clouds 1700ft
Druck
Änderung -
Roh KSAN 050812Z 20003KT 10SM BKN017 19/14 A2996 RMK AO2 T01890144

VFR

18.9°C / 14.4°C

[Mehr]
Wind variable 0kt
Sichtweite >10km
Wetter -
Wolken Scattered Clouds 1800ft
Druck 1014
Änderung -
Roh KSAN 050751Z 00000KT 10SM SCT018 19/14 A2997 RMK AO2 SLP146 T01890144 402060178

VFR

18.3°C / 14.4°C

[Mehr]
Wind variable 0kt
Sichtweite >10km
Wetter -
Wolken Few Clouds 2000ft
Druck 1014
Änderung -
Roh KSAN 050651Z 00000KT 10SM FEW020 18/14 A2997 RMK AO2 SLP149 T01830144

VFR

18.3°C / 13.9°C

[Mehr]
Wind variable 0kt
Sichtweite >10km
Wetter -
Wolken Scattered Clouds 2000ft
Druck 1015
Änderung -
Roh KSAN 050551Z 00000KT 10SM SCT020 18/14 A2998 RMK AO2 SLP151 T01830139 10200 20183 51006

VFR

18.3°C / 13.9°C

[Mehr]
Wind variable 0kt
Sichtweite >10km
Wetter -
Wolken Few Clouds 500ft
Scattered Clouds 2000ft
Druck 1015
Änderung -
Roh KSAN 050451Z 00000KT 10SM FEW005 SCT020 18/14 A2998 RMK AO2 SLP151 FU FEW005 T01830139

MVFR

18.3°C / 13.9°C

[Mehr]
Wind 290º 4kt
Sichtweite >10km
Wetter -
Wolken Few Clouds 500ft
Broken Clouds 2000ft
Druck
Änderung -
Roh KSAN 050413Z 29004KT 10SM FEW005 BKN020 18/14 A2997 RMK AO2 FU FEW005 T01830139

VFR

18.3°C / 13.9°C

[Mehr]
Wind variable 3kt
Sichtweite >10km
Wetter -
Wolken Scattered Clouds 1900ft
Druck 1014
Änderung -
Roh KSAN 050351Z VRB03KT 10SM SCT019 18/14 A2997 RMK AO2 SLP148 SCT V BKN T01830139

TAF für San Diego (KSAN)

From till


From till Wind 280º 9kt. Visibility 10km or more. Scattered Clouds 2100ft.
From till Wind 290º 5kt. Visibility 10km or more. Overcast 2100ft.
From till Wind variable 4kt. Visibility 10km or more. Overcast 1800ft.
From till Wind 280º 5kt. Visibility 10km or more. Scattered Clouds 2000ft.
From till Wind 290º 11kt. Visibility 10km or more. Few Clouds 2000ft.
From till Wind variable 5kt. Visibility 10km or more. Broken Clouds 1500ft.

Roh: KSAN 052321Z 0600/0706 28009KT P6SM SCT021 FM060200 29005KT P6SM OVC021 FM060800 VRB04KT P6SM OVC018 FM061730 28005KT P6SM SCT020 FM061900 29011KT P6SM FEW020 FM070200 VRB05KT P6SM BKN015

Radar- und Niederschlags-Nowcast für San Diego

Nieselregen
Leicht
Moderat
Stark
Sehr schwer
Hagel

Die Ortsmarkierung zeigt auf San Diego. Diese Animation zeigt das Niederschlagsradar der letzten Stunde, sowie eine 1h Vorhersage. Nieselregen und leichter Schneefall können für das Radar unsichtbar sein. Die Niederschlagsintensität ist farbcodiert von Hellblau bis Orange.

Aktuelle Satellitenbilder für San Diego, Vereinigte Staaten

Die Standortmarkierung ist platziert auf San Diego. [Mehr]

Das Echtzeit-Satellitenbild kombiniert sichtbares Licht während des Tages mit Infrarotstrahlung während der Nacht. Nachts ist das Bild nicht dunkel, da Infrarotstrahlung Temperaturunterschiede erkennen kann. Leider sind niedrige Wolken und Nebel nur schwer von den Bodentemperaturen zu unterscheiden und können daher nachts fast unsichtbar sein. Meteosat-Satellitenbilder für Europa werden alle 5 Minuten in Echtzeit aktualisiert. Die Bilder GOES-16 / GOES-17 (Nord- und Südamerika) und Himawari (Asien) werden alle 10 Minuten aktualisiert.

Zum Anfang